createdAt,value
2017-05-10T00:00:14.097Z,12
2017-05-10T00:01:27.005Z,12
2017-05-10T00:02:39.421Z,12
2017-05-10T00:03:52.524Z,12
2017-05-10T00:05:05.361Z,12
2017-05-10T00:06:18.156Z,12
2017-05-10T00:07:30.950Z,12
2017-05-10T00:08:43.759Z,12
2017-05-10T00:09:56.571Z,12
2017-05-10T00:11:09.370Z,12
2017-05-10T00:12:22.170Z,12
2017-05-10T00:13:34.968Z,12
2017-05-10T00:14:47.766Z,12
2017-05-10T00:16:00.080Z,12
2017-05-10T00:17:12.877Z,12
2017-05-10T00:18:25.194Z,12
2017-05-10T00:19:37.994Z,12
2017-05-10T00:20:51.141Z,12
2017-05-10T00:22:03.935Z,12
2017-05-10T00:23:15.766Z,12
2017-05-10T00:24:28.567Z,12
2017-05-10T00:25:41.416Z,12
2017-05-10T00:26:54.211Z,12
2017-05-10T00:28:07.012Z,12
2017-05-10T00:29:19.810Z,12
2017-05-10T00:30:32.131Z,12
2017-05-10T00:31:44.939Z,12
2017-05-10T00:32:57.255Z,12
2017-05-10T00:34:10.079Z,12
2017-05-10T00:35:22.877Z,12
2017-05-10T00:36:35.718Z,12
2017-05-10T00:37:48.517Z,12
2017-05-10T00:39:01.317Z,12
2017-05-10T00:40:14.116Z,12
2017-05-10T00:41:26.908Z,12
2017-05-10T00:42:39.952Z,12
2017-05-10T00:43:52.761Z,4
2017-05-10T00:45:05.563Z,16
2017-05-10T00:46:17.880Z,12
2017-05-10T00:47:30.732Z,12
2017-05-10T00:48:43.524Z,12
2017-05-10T00:49:56.314Z,12
2017-05-10T00:51:09.133Z,12
2017-05-10T00:52:21.953Z,12
2017-05-10T00:53:34.744Z,12
2017-05-10T00:54:47.527Z,12
2017-05-10T00:55:59.833Z,12
2017-05-10T00:57:12.617Z,12
2017-05-10T00:58:25.403Z,12
2017-05-10T00:59:37.701Z,12
2017-05-10T01:00:50.003Z,12
2017-05-10T01:02:02.786Z,12
2017-05-10T01:03:15.576Z,12
2017-05-10T01:04:28.363Z,12
2017-05-10T01:05:41.184Z,12
2017-05-10T01:06:53.972Z,12
2017-05-10T01:08:06.758Z,12
2017-05-10T01:09:19.548Z,12
2017-05-10T01:10:32.332Z,12
2017-05-10T01:11:45.119Z,12
2017-05-10T01:12:57.919Z,12
2017-05-10T01:14:10.710Z,12
2017-05-10T01:15:23.699Z,12
2017-05-10T01:16:35.998Z,12
2017-05-10T01:17:48.297Z,12
2017-05-10T01:19:00.601Z,12
2017-05-10T01:20:13.205Z,12
2017-05-10T01:21:25.999Z,12
2017-05-10T01:22:38.795Z,12
2017-05-10T01:23:51.580Z,12
2017-05-10T01:25:04.374Z,12
2017-05-10T01:26:17.161Z,12
2017-05-10T01:27:29.952Z,12
2017-05-10T01:28:42.737Z,12
2017-05-10T01:29:55.520Z,12
2017-05-10T01:31:08.502Z,12
2017-05-10T01:32:20.802Z,12
2017-05-10T01:33:33.606Z,12
2017-05-10T01:34:46.389Z,12
2017-05-10T01:35:59.175Z,12
2017-05-10T01:37:11.530Z,12
2017-05-10T01:38:24.313Z,12
2017-05-10T01:39:37.098Z,12
2017-05-10T01:40:49.891Z,12
2017-05-10T01:42:16.750Z,12
2017-05-10T01:43:29.546Z,12
2017-05-10T01:44:42.335Z,12
2017-05-10T01:45:55.126Z,12
2017-05-10T01:47:07.949Z,12
2017-05-10T01:48:20.259Z,12
2017-05-10T01:49:33.062Z,12
2017-05-10T01:50:45.843Z,12
2017-05-10T01:51:58.150Z,12
2017-05-10T01:53:10.650Z,12
2017-05-10T01:54:22.957Z,12
2017-05-10T01:55:35.261Z,12
2017-05-10T01:56:48.043Z,12
2017-05-10T01:58:00.838Z,12
2017-05-10T01:59:13.618Z,12
2017-05-10T02:00:26.406Z,12
2017-05-10T02:01:38.708Z,12
2017-05-10T02:02:51.501Z,12
2017-05-10T02:04:03.803Z,12
2017-05-10T02:05:16.585Z,12
2017-05-10T02:06:29.371Z,12
2017-05-10T02:07:41.679Z,12
2017-05-10T02:08:53.982Z,12
2017-05-10T02:10:06.767Z,12
2017-05-10T02:11:19.558Z,12
2017-05-10T02:12:32.346Z,12
2017-05-10T02:13:44.172Z,12
2017-05-10T02:14:56.482Z,12
2017-05-10T02:16:09.267Z,12
2017-05-10T02:17:22.051Z,12
2017-05-10T02:18:34.845Z,12
2017-05-10T02:19:48.000Z,12
2017-05-10T02:21:00.304Z,12
2017-05-10T02:22:12.617Z,12
2017-05-10T02:23:25.413Z,12
2017-05-10T02:24:37.724Z,12
2017-05-10T02:25:49.753Z,12
2017-05-10T02:27:02.548Z,12
2017-05-10T02:28:15.340Z,12
2017-05-10T02:29:28.146Z,12
2017-05-10T02:30:40.943Z,12
2017-05-10T02:31:53.735Z,12
2017-05-10T02:33:06.530Z,12
2017-05-10T02:34:19.329Z,12
2017-05-10T02:35:32.125Z,12
2017-05-10T02:36:44.916Z,12
2017-05-10T02:37:57.714Z,12
2017-05-10T02:39:10.027Z,12
2017-05-10T02:40:22.334Z,12
2017-05-10T02:41:35.129Z,12
2017-05-10T02:42:47.917Z,12
2017-05-10T02:44:00.716Z,12
2017-05-10T02:45:13.510Z,12
2017-05-10T02:46:26.302Z,12
2017-05-10T02:47:38.332Z,12
2017-05-10T02:48:51.129Z,12
2017-05-10T02:50:03.930Z,4
2017-05-10T02:51:16.726Z,16
2017-05-10T02:52:29.716Z,12
2017-05-10T02:53:42.514Z,12
2017-05-10T02:54:55.306Z,12
2017-05-10T02:56:07.612Z,12
2017-05-10T02:57:20.402Z,12
2017-05-10T02:58:33.192Z,12
2017-05-10T02:59:45.997Z,12
2017-05-10T03:00:58.785Z,12
2017-05-10T03:02:10.607Z,12
2017-05-10T03:03:22.920Z,12
2017-05-10T03:04:35.718Z,12
2017-05-10T03:05:48.029Z,12
2017-05-10T03:07:00.820Z,12
2017-05-10T03:08:13.603Z,12
2017-05-10T03:09:26.128Z,12
2017-05-10T03:10:38.925Z,12
2017-05-10T03:11:51.712Z,12
2017-05-10T03:13:04.502Z,12
2017-05-10T03:14:17.292Z,12
2017-05-10T03:15:30.091Z,12
2017-05-10T03:16:42.885Z,12
2017-05-10T03:17:55.679Z,12
2017-05-10T03:19:08.473Z,12
2017-05-10T03:20:20.781Z,12
2017-05-10T03:21:33.576Z,12
2017-05-10T03:22:46.364Z,12
2017-05-10T03:23:59.148Z,12
2017-05-10T03:25:12.143Z,12
2017-05-10T03:26:24.932Z,12
2017-05-10T03:27:37.715Z,12
2017-05-10T03:28:50.509Z,12
2017-05-10T03:30:03.300Z,12
2017-05-10T03:31:15.913Z,12
2017-05-10T03:32:28.222Z,12
2017-05-10T03:33:40.536Z,12
2017-05-10T03:34:52.858Z,12
2017-05-10T03:36:05.852Z,12
2017-05-10T03:37:18.652Z,12
2017-05-10T03:38:31.435Z,12
2017-05-10T03:39:44.243Z,12
2017-05-10T03:40:57.038Z,12
2017-05-10T03:42:09.646Z,12
2017-05-10T03:43:22.431Z,12
2017-05-10T03:44:34.734Z,12
2017-05-10T03:45:47.569Z,12
2017-05-10T03:47:00.574Z,12
2017-05-10T03:48:13.377Z,12
2017-05-10T03:49:25.679Z,12
2017-05-10T03:50:38.460Z,12
2017-05-10T03:51:51.251Z,12
2017-05-10T03:53:04.335Z,12
2017-05-10T03:54:16.656Z,12
2017-05-10T03:55:29.449Z,12
2017-05-10T03:56:42.228Z,12
2017-05-10T03:57:55.024Z,12
2017-05-10T03:59:07.807Z,12
2017-05-10T04:00:20.586Z,12
2017-05-10T04:01:33.370Z,12
2017-05-10T04:02:46.158Z,12
2017-05-10T04:03:58.761Z,12
2017-05-10T04:05:11.551Z,12
2017-05-10T04:06:24.339Z,12
2017-05-10T04:07:37.123Z,12
2017-05-10T04:08:49.916Z,12
2017-05-10T04:10:02.702Z,12
2017-05-10T04:11:15.006Z,12
2017-05-10T04:12:27.786Z,12
2017-05-10T04:13:40.576Z,12
2017-05-10T04:14:53.561Z,12
2017-05-10T04:16:06.342Z,12
2017-05-10T04:17:19.129Z,12
2017-05-10T04:18:31.915Z,12
2017-05-10T04:19:44.801Z,16
2017-05-10T04:20:57.105Z,12
2017-05-10T04:22:09.887Z,12
2017-05-10T04:23:22.193Z,12
2017-05-10T04:24:34.975Z,12
2017-05-10T04:25:47.959Z,12
2017-05-10T04:27:00.270Z,12
2017-05-10T04:28:13.057Z,12
2017-05-10T04:29:25.360Z,12
2017-05-10T04:30:38.340Z,12
2017-05-10T04:31:51.127Z,12
2017-05-10T04:33:03.915Z,12
2017-05-10T04:34:16.702Z,12
2017-05-10T04:35:29.005Z,12
2017-05-10T04:36:41.799Z,12
2017-05-10T04:37:54.595Z,12
2017-05-10T04:39:07.394Z,12
2017-05-10T04:40:20.179Z,12
2017-05-10T04:41:32.965Z,12
2017-05-10T04:42:45.771Z,12
2017-05-10T04:43:58.078Z,12
2017-05-10T04:45:10.413Z,12
2017-05-10T04:46:23.201Z,12
2017-05-10T04:47:35.530Z,12
2017-05-10T04:48:47.842Z,12
2017-05-10T04:49:59.677Z,12
2017-05-10T04:51:12.462Z,12
2017-05-10T04:52:25.559Z,12
2017-05-10T04:53:38.356Z,12
2017-05-10T04:54:51.160Z,12
2017-05-10T04:56:02.983Z,12
2017-05-10T04:57:15.292Z,12
2017-05-10T04:58:28.091Z,12
2017-05-10T04:59:40.882Z,12
2017-05-10T05:00:53.191Z,12
2017-05-10T05:02:05.982Z,12
2017-05-10T05:03:19.074Z,12
2017-05-10T05:04:31.873Z,12
2017-05-10T05:05:44.663Z,12
2017-05-10T05:06:56.968Z,12
2017-05-10T05:08:09.280Z,12
2017-05-10T05:09:22.076Z,12
2017-05-10T05:10:34.873Z,12
2017-05-10T05:11:47.659Z,12
2017-05-10T05:13:00.455Z,12
2017-05-10T05:14:12.767Z,8
2017-05-10T05:15:25.555Z,12
2017-05-10T05:16:38.354Z,12
2017-05-10T05:17:51.147Z,8
2017-05-10T05:19:03.946Z,12
2017-05-10T05:20:16.465Z,12
2017-05-10T05:21:29.259Z,12
2017-05-10T05:22:42.053Z,8
2017-05-10T05:23:54.854Z,12
2017-05-10T05:25:07.956Z,12
2017-05-10T05:26:20.757Z,8
2017-05-10T05:27:33.544Z,12
2017-05-10T05:28:46.340Z,8
2017-05-10T05:29:59.139Z,12
2017-05-10T05:31:11.927Z,12
2017-05-10T05:32:24.719Z,12
2017-05-10T05:33:37.510Z,12
2017-05-10T05:34:50.306Z,12
2017-05-10T05:36:02.624Z,12
2017-05-10T05:37:15.409Z,12
2017-05-10T05:38:27.722Z,12
2017-05-10T05:39:40.520Z,12
2017-05-10T05:40:53.317Z,12
2017-05-10T05:42:06.312Z,12
2017-05-10T05:43:18.622Z,12
2017-05-10T05:44:31.454Z,12
2017-05-10T05:45:44.288Z,12
2017-05-10T05:46:57.071Z,12
2017-05-10T05:48:09.853Z,12
2017-05-10T05:49:22.634Z,12
2017-05-10T05:50:35.429Z,12
2017-05-10T05:51:47.735Z,12
2017-05-10T05:53:00.823Z,12
2017-05-10T05:54:13.132Z,12
2017-05-10T05:55:25.923Z,12
2017-05-10T05:56:38.723Z,12
2017-05-10T05:57:51.709Z,12
2017-05-10T05:59:04.495Z,12
2017-05-10T06:00:16.808Z,12
2017-05-10T06:01:29.598Z,12
2017-05-10T06:02:42.380Z,12
2017-05-10T06:03:54.879Z,12
2017-05-10T06:05:07.665Z,12
2017-05-10T06:06:19.964Z,12
2017-05-10T06:07:32.748Z,12
2017-05-10T06:08:45.348Z,12
2017-05-10T06:09:58.130Z,12
2017-05-10T06:11:10.432Z,12
2017-05-10T06:12:23.216Z,12
2017-05-10T06:13:35.515Z,12
2017-05-10T06:14:48.293Z,12
2017-05-10T06:16:00.596Z,12
2017-05-10T06:17:13.374Z,12
2017-05-10T06:18:26.159Z,12
2017-05-10T06:19:38.945Z,12
2017-05-10T06:20:51.727Z,4
2017-05-10T06:22:04.035Z,16
2017-05-10T06:23:15.856Z,16
2017-05-10T06:24:28.160Z,12
2017-05-10T06:25:41.148Z,12
2017-05-10T06:26:53.932Z,12
2017-05-10T06:28:06.725Z,12
2017-05-10T06:29:19.514Z,12
2017-05-10T06:30:32.013Z,12
2017-05-10T06:31:44.313Z,12
2017-05-10T06:32:57.096Z,12
2017-05-10T06:34:09.883Z,12
2017-05-10T06:35:21.705Z,12
2017-05-10T06:36:34.784Z,12
2017-05-10T06:37:47.563Z,12
2017-05-10T06:39:00.351Z,12
2017-05-10T06:40:12.656Z,12
2017-05-10T06:41:25.640Z,12
2017-05-10T06:42:38.421Z,12
2017-05-10T06:43:50.733Z,12
2017-05-10T06:45:03.514Z,12
2017-05-10T06:46:15.331Z,12
2017-05-10T06:47:28.111Z,8
2017-05-10T06:48:40.898Z,12
2017-05-10T06:49:53.202Z,12
2017-05-10T06:51:05.982Z,8
2017-05-10T06:52:18.283Z,12
2017-05-10T06:53:30.581Z,12
2017-05-10T06:54:43.363Z,12
2017-05-10T06:55:56.144Z,12
2017-05-10T06:57:08.443Z,12
2017-05-10T06:58:21.527Z,12
2017-05-10T06:59:34.316Z,12
2017-05-10T07:00:47.102Z,12
2017-05-10T07:01:59.882Z,12
2017-05-10T07:03:12.661Z,12
2017-05-10T07:04:24.964Z,12
2017-05-10T07:05:37.755Z,12
2017-05-10T07:06:50.535Z,12
2017-05-10T07:08:03.324Z,12
2017-05-10T07:09:16.307Z,12
2017-05-10T07:10:29.091Z,12
2017-05-10T07:11:41.873Z,12
2017-05-10T07:12:54.671Z,12
2017-05-10T07:14:07.278Z,12
2017-05-10T07:15:20.075Z,12
2017-05-10T07:16:32.858Z,12
2017-05-10T07:17:45.157Z,12
2017-05-10T07:18:56.495Z,12
2017-05-10T07:20:08.321Z,12
2017-05-10T07:21:20.618Z,12
2017-05-10T07:22:33.402Z,12
2017-05-10T07:23:46.188Z,12
2017-05-10T07:24:59.275Z,12
2017-05-10T07:26:12.098Z,12
2017-05-10T07:27:24.881Z,12
2017-05-10T07:28:37.180Z,12
2017-05-10T07:29:49.491Z,12
2017-05-10T07:31:02.291Z,12
2017-05-10T07:32:14.590Z,12
2017-05-10T07:33:27.375Z,12
2017-05-10T07:34:40.154Z,12
2017-05-10T07:35:52.935Z,12
2017-05-10T07:37:05.233Z,12
2017-05-10T07:38:16.572Z,12
2017-05-10T07:39:29.384Z,12
2017-05-10T07:40:42.162Z,12
2017-05-10T07:41:55.288Z,12
2017-05-10T07:43:07.586Z,12
2017-05-10T07:44:20.368Z,12
2017-05-10T07:45:33.152Z,12
2017-05-10T07:46:45.451Z,12
2017-05-10T07:47:57.753Z,8
2017-05-10T07:49:10.051Z,12
2017-05-10T07:50:22.844Z,12
2017-05-10T07:51:35.629Z,12
2017-05-10T07:52:48.229Z,12
2017-05-10T07:54:01.020Z,12
2017-05-10T07:55:13.808Z,12
2017-05-10T07:56:26.590Z,12
2017-05-10T07:57:39.571Z,12
2017-05-10T07:58:52.356Z,12
2017-05-10T08:00:04.665Z,12
2017-05-10T08:01:16.003Z,12
2017-05-10T08:02:28.790Z,12
2017-05-10T08:03:41.779Z,4
2017-05-10T08:04:54.565Z,16
2017-05-10T08:06:07.346Z,12
2017-05-10T08:07:20.123Z,12
2017-05-10T08:08:32.905Z,12
2017-05-10T08:09:45.684Z,12
2017-05-10T08:10:57.985Z,12
2017-05-10T08:12:10.284Z,12
2017-05-10T08:13:23.067Z,12
2017-05-10T08:14:36.046Z,12
2017-05-10T08:15:48.826Z,12
2017-05-10T08:17:01.608Z,12
2017-05-10T08:18:13.424Z,12
2017-05-10T08:19:26.204Z,12
2017-05-10T08:20:38.984Z,12
2017-05-10T08:21:51.766Z,12
2017-05-10T08:23:04.556Z,12
2017-05-10T08:24:15.893Z,12
2017-05-10T08:25:28.198Z,12
2017-05-10T08:26:40.493Z,12
2017-05-10T08:27:53.277Z,12
2017-05-10T08:29:05.091Z,12
2017-05-10T08:30:18.071Z,12
2017-05-10T08:31:30.369Z,12
2017-05-10T08:32:42.676Z,12
2017-05-10T08:33:55.461Z,12
2017-05-10T08:35:07.763Z,12
2017-05-10T08:36:19.879Z,12
2017-05-10T08:37:32.182Z,12
2017-05-10T08:38:44.973Z,12
2017-05-10T08:39:57.283Z,12
2017-05-10T08:41:10.102Z,12
2017-05-10T08:42:22.895Z,12
2017-05-10T08:43:35.684Z,12
2017-05-10T08:44:48.466Z,12
2017-05-10T08:46:00.772Z,12
2017-05-10T08:47:13.376Z,12
2017-05-10T08:48:25.680Z,12
2017-05-10T08:49:37.988Z,12
2017-05-10T08:50:50.778Z,12
2017-05-10T08:52:03.870Z,12
2017-05-10T08:53:16.172Z,12
2017-05-10T08:54:27.992Z,12
2017-05-10T08:55:40.776Z,12
2017-05-10T08:56:53.078Z,12
2017-05-10T08:58:06.064Z,12
2017-05-10T08:59:18.364Z,12
2017-05-10T09:00:31.154Z,12
2017-05-10T09:01:43.943Z,12
2017-05-10T09:02:56.754Z,12
2017-05-10T09:04:09.544Z,12
2017-05-10T09:05:21.839Z,12
2017-05-10T09:06:34.631Z,12
2017-05-10T09:07:47.413Z,12
2017-05-10T09:09:00.195Z,12
2017-05-10T09:10:12.011Z,12
2017-05-10T09:11:24.313Z,12
2017-05-10T09:12:37.100Z,12
2017-05-10T09:13:49.605Z,12
2017-05-10T09:15:02.384Z,12
2017-05-10T09:16:15.164Z,12
2017-05-10T09:17:27.950Z,12
2017-05-10T09:18:40.732Z,16
2017-05-10T09:19:53.509Z,12
2017-05-10T09:21:06.296Z,16
2017-05-10T09:22:18.603Z,16
2017-05-10T09:23:31.383Z,16
2017-05-10T09:24:44.362Z,16
2017-05-10T09:25:56.662Z,20
2017-05-10T09:27:08.963Z,20
2017-05-10T09:28:21.735Z,20
2017-05-10T09:29:34.032Z,20
2017-05-10T09:30:47.117Z,12
2017-05-10T09:31:59.416Z,12
2017-05-10T09:33:12.193Z,12
2017-05-10T09:34:24.978Z,20
2017-05-10T09:35:38.003Z,16
2017-05-10T09:36:50.781Z,20
2017-05-10T09:38:03.592Z,24
2017-05-10T09:39:16.370Z,24
2017-05-10T09:40:29.151Z,28
2017-05-10T09:41:41.668Z,28
2017-05-10T09:42:54.450Z,32
2017-05-10T09:44:07.236Z,32
2017-05-10T09:45:19.533Z,32
2017-05-10T09:46:31.836Z,36
2017-05-10T09:47:44.616Z,36
2017-05-10T09:48:56.913Z,44
2017-05-10T09:50:09.211Z,60
2017-05-10T09:51:21.988Z,64
2017-05-10T09:52:34.976Z,64
2017-05-10T09:53:47.762Z,64
2017-05-10T09:55:00.550Z,64
2017-05-10T09:56:12.847Z,72
2017-05-10T09:57:25.628Z,76
2017-05-10T09:58:37.445Z,76
2017-05-10T09:59:50.231Z,84
2017-05-10T10:01:02.530Z,88
2017-05-10T10:02:15.317Z,92
2017-05-10T10:03:28.296Z,96
2017-05-10T10:04:40.595Z,100
2017-05-10T10:05:53.377Z,100
2017-05-10T10:07:05.677Z,104
2017-05-10T10:08:17.985Z,104
2017-05-10T10:09:30.766Z,108
2017-05-10T10:10:43.065Z,108
2017-05-10T10:11:55.845Z,112
2017-05-10T10:13:08.146Z,116
2017-05-10T10:14:20.643Z,116
2017-05-10T10:15:33.447Z,120
2017-05-10T10:16:45.747Z,120
2017-05-10T10:17:58.051Z,124
2017-05-10T10:19:10.354Z,124
2017-05-10T10:20:23.132Z,132
2017-05-10T10:21:35.911Z,144
2017-05-10T10:22:48.700Z,148
2017-05-10T10:24:01.005Z,168
2017-05-10T10:25:13.985Z,192
2017-05-10T10:26:26.290Z,200
2017-05-10T10:27:38.585Z,212
2017-05-10T10:28:50.890Z,196
2017-05-10T10:30:03.872Z,200
2017-05-10T10:31:15.689Z,192
2017-05-10T10:32:28.477Z,176
2017-05-10T10:33:41.260Z,200
2017-05-10T10:34:54.043Z,228
2017-05-10T10:36:06.346Z,248
2017-05-10T10:37:17.695Z,260
2017-05-10T10:38:29.996Z,240
2017-05-10T10:39:42.778Z,260
2017-05-10T10:40:54.904Z,272
2017-05-10T10:42:07.213Z,296
2017-05-10T10:43:20.002Z,272
2017-05-10T10:44:31.861Z,256
2017-05-10T10:45:44.162Z,256
2017-05-10T10:46:56.956Z,244
2017-05-10T10:48:09.738Z,236
2017-05-10T10:49:22.522Z,228
2017-05-10T10:50:35.339Z,236
2017-05-10T10:51:47.845Z,232
2017-05-10T10:53:00.154Z,236
2017-05-10T10:54:12.943Z,216
2017-05-10T10:55:25.253Z,204
2017-05-10T10:56:38.046Z,216
2017-05-10T10:57:50.357Z,228
2017-05-10T10:59:03.149Z,232
2017-05-10T11:00:15.454Z,236
2017-05-10T11:01:28.240Z,236
2017-05-10T11:02:40.892Z,232
2017-05-10T11:03:53.671Z,224
2017-05-10T11:05:06.451Z,192
2017-05-10T11:06:19.233Z,184
2017-05-10T11:07:32.033Z,188
2017-05-10T11:08:44.540Z,184
2017-05-10T11:09:57.321Z,192
2017-05-10T11:11:09.148Z,224
2017-05-10T11:12:21.943Z,208
2017-05-10T11:13:34.304Z,208
2017-05-10T11:14:47.102Z,224
2017-05-10T11:15:59.911Z,232
2017-05-10T11:17:12.218Z,228
2017-05-10T11:18:25.008Z,284
2017-05-10T11:19:37.790Z,284
2017-05-10T11:20:50.570Z,320
2017-05-10T11:22:03.353Z,288
2017-05-10T11:23:15.653Z,236
2017-05-10T11:24:28.155Z,248
2017-05-10T11:25:40.454Z,348
2017-05-10T11:26:53.234Z,256
2017-05-10T11:28:06.024Z,212
2017-05-10T11:29:18.832Z,236
2017-05-10T11:30:31.617Z,228
2017-05-10T11:31:44.399Z,260
2017-05-10T11:32:57.187Z,296
2017-05-10T11:34:09.971Z,336
2017-05-10T11:35:22.751Z,400
2017-05-10T11:36:35.051Z,436
2017-05-10T11:37:47.829Z,396
2017-05-10T11:39:00.127Z,404
2017-05-10T11:40:12.907Z,412
2017-05-10T11:41:25.418Z,400
2017-05-10T11:42:37.717Z,412
2017-05-10T11:43:50.513Z,416
2017-05-10T11:45:03.296Z,408
2017-05-10T11:46:15.317Z,396
2017-05-10T11:47:27.620Z,388
2017-05-10T11:48:40.403Z,400
2017-05-10T11:49:53.189Z,408
2017-05-10T11:51:05.972Z,428
2017-05-10T11:52:18.958Z,440
2017-05-10T11:53:31.744Z,448
2017-05-10T11:54:44.047Z,436
2017-05-10T11:55:56.846Z,424
2017-05-10T11:57:09.635Z,420
2017-05-10T11:58:21.937Z,440
2017-05-10T11:59:34.724Z,432
2017-05-10T12:00:47.027Z,404
2017-05-10T12:01:59.331Z,372
2017-05-10T12:03:12.272Z,352
2017-05-10T12:04:25.072Z,356
2017-05-10T12:05:37.384Z,348
2017-05-10T12:11:53.672Z,304
2017-05-10T12:13:06.459Z,296
2017-05-10T12:14:18.771Z,288
2017-05-10T12:15:31.082Z,292
2017-05-10T12:16:43.870Z,272
2017-05-10T12:17:56.668Z,288
2017-05-10T12:19:09.506Z,340
2017-05-10T12:20:22.300Z,356
2017-05-10T12:21:34.607Z,352
2017-05-10T12:22:47.393Z,320
2017-05-10T12:24:00.201Z,304
2017-05-10T12:25:12.999Z,240
2017-05-10T12:26:25.300Z,220
2017-05-10T12:27:37.599Z,216
2017-05-10T12:28:50.589Z,200
2017-05-10T12:30:03.389Z,184
2017-05-10T12:31:16.181Z,184
2017-05-10T12:32:28.971Z,176
2017-05-10T12:33:40.805Z,180
2017-05-10T12:34:53.606Z,200
2017-05-10T12:36:06.405Z,220
2017-05-10T12:37:18.711Z,228
2017-05-10T12:38:30.531Z,224
2017-05-10T12:39:43.326Z,236
2017-05-10T12:40:55.637Z,256
2017-05-10T12:42:07.940Z,284
2017-05-10T12:43:20.256Z,296
2017-05-10T12:44:33.251Z,284
2017-05-10T12:45:45.565Z,280
2017-05-10T12:46:58.363Z,272
2017-05-10T12:48:11.156Z,248
2017-05-10T12:49:23.985Z,232
2017-05-10T12:50:36.785Z,220
2017-05-10T12:51:48.614Z,224
2017-05-10T12:53:01.401Z,208
2017-05-10T12:54:13.707Z,200
2017-05-10T12:55:26.025Z,200
2017-05-10T12:56:38.830Z,204
2017-05-10T12:57:51.630Z,208
2017-05-10T12:59:04.416Z,216
2017-05-10T13:00:16.242Z,220
2017-05-10T13:01:29.351Z,220
2017-05-10T13:02:42.139Z,236
2017-05-10T13:03:54.451Z,236
2017-05-10T13:05:07.248Z,248
2017-05-10T13:06:34.115Z,260
2017-05-10T13:07:46.914Z,288
2017-05-10T13:08:59.703Z,308
2017-05-10T13:10:12.492Z,336
2017-05-10T13:11:24.855Z,360
2017-05-10T13:12:37.648Z,368
2017-05-10T13:13:50.456Z,372
2017-05-10T13:15:03.247Z,372
2017-05-10T13:16:16.060Z,360
2017-05-10T13:17:29.060Z,352
2017-05-10T13:18:41.382Z,336
2017-05-10T13:19:53.686Z,320
2017-05-10T13:21:06.477Z,320
2017-05-10T13:22:19.266Z,312
2017-05-10T13:23:31.576Z,320
2017-05-10T13:24:43.877Z,328
2017-05-10T13:25:56.665Z,356
2017-05-10T13:27:09.458Z,400
2017-05-10T13:28:22.393Z,448
2017-05-10T13:29:35.175Z,484
2017-05-10T13:30:47.473Z,492
2017-05-10T13:32:00.259Z,544
2017-05-10T13:33:13.097Z,880
2017-05-10T13:34:25.405Z,1316
2017-05-10T13:35:38.198Z,1940
2017-05-10T13:36:50.993Z,1900
2017-05-10T13:38:03.792Z,1956
2017-05-10T13:39:16.790Z,1648
2017-05-10T13:40:29.572Z,1944
2017-05-10T13:41:42.401Z,1968
2017-05-10T13:42:54.716Z,2008
2017-05-10T13:44:07.511Z,2108
2017-05-10T13:45:20.306Z,2164
2017-05-10T13:46:33.096Z,2000
2017-05-10T13:47:45.411Z,1456
2017-05-10T13:48:58.208Z,1420
2017-05-10T13:50:10.035Z,1920
2017-05-10T13:51:22.829Z,1440
2017-05-10T13:52:35.646Z,952
2017-05-10T13:53:48.447Z,796
2017-05-10T13:55:01.548Z,740
2017-05-10T13:56:14.341Z,652
2017-05-10T13:57:26.668Z,600
2017-05-10T13:58:39.479Z,580
2017-05-10T13:59:52.282Z,588
2017-05-10T14:01:04.695Z,596
2017-05-10T14:02:17.009Z,624
2017-05-10T14:03:29.828Z,652
2017-05-10T14:04:42.148Z,680
2017-05-10T14:05:54.756Z,684
2017-05-10T14:07:07.589Z,700
2017-05-10T14:08:19.904Z,716
2017-05-10T14:09:32.710Z,816
2017-05-10T14:10:45.500Z,788
2017-05-10T14:11:58.008Z,836
2017-05-10T14:13:10.321Z,916
2017-05-10T14:14:22.146Z,1012
2017-05-10T14:15:34.933Z,1048
2017-05-10T14:16:47.754Z,1008
2017-05-10T14:18:00.543Z,916
2017-05-10T14:19:13.328Z,888
2017-05-10T14:20:26.117Z,888
2017-05-10T14:21:38.906Z,888
2017-05-10T14:22:50.726Z,868
2017-05-10T14:24:03.510Z,920
2017-05-10T14:25:15.816Z,888
2017-05-10T14:26:28.636Z,780
2017-05-10T14:27:40.939Z,752
2017-05-10T14:28:53.723Z,752
2017-05-10T14:30:06.507Z,756
2017-05-10T14:31:19.291Z,744
2017-05-10T14:32:32.094Z,736
2017-05-10T14:33:44.882Z,728
2017-05-10T14:34:57.228Z,712
2017-05-10T14:36:10.013Z,688
2017-05-10T14:37:22.313Z,672
2017-05-10T14:38:35.105Z,684
2017-05-10T14:39:47.414Z,700
2017-05-10T14:41:00.201Z,744
2017-05-10T14:42:12.993Z,828
2017-05-10T14:43:25.784Z,572
2017-05-10T14:44:38.871Z,460
2017-05-10T14:45:50.699Z,408
2017-05-10T14:47:03.490Z,376
2017-05-10T14:48:15.791Z,352
2017-05-10T14:49:28.574Z,336
2017-05-10T14:50:40.878Z,328
2017-05-10T14:51:53.672Z,312
2017-05-10T14:53:06.461Z,300
2017-05-10T14:54:19.251Z,288
2017-05-10T14:55:32.087Z,300
2017-05-10T14:56:44.878Z,332
2017-05-10T14:57:57.189Z,344
2017-05-10T14:59:09.981Z,368
2017-05-10T15:00:23.065Z,372
2017-05-10T15:01:35.869Z,384
2017-05-10T15:02:48.659Z,392
2017-05-10T15:04:01.444Z,412
2017-05-10T15:05:13.266Z,416
2017-05-10T15:06:26.051Z,416
2017-05-10T15:07:38.835Z,428
2017-05-10T15:08:51.620Z,456
2017-05-10T15:10:04.407Z,488
2017-05-10T15:11:17.392Z,508
2017-05-10T15:12:30.172Z,544
2017-05-10T15:13:42.954Z,556
2017-05-10T15:14:54.290Z,580
2017-05-10T15:16:07.076Z,612
2017-05-10T15:17:19.098Z,660
2017-05-10T15:18:31.882Z,692
2017-05-10T15:19:44.663Z,716
2017-05-10T15:20:57.448Z,764
2017-05-10T15:22:10.230Z,780
2017-05-10T15:23:22.532Z,792
2017-05-10T15:24:34.838Z,812
2017-05-10T15:25:47.621Z,816
2017-05-10T15:27:00.403Z,820
2017-05-10T15:28:13.388Z,820
2017-05-10T15:29:26.174Z,800
2017-05-10T15:30:38.957Z,800
2017-05-10T15:31:51.263Z,848
2017-05-10T15:33:03.565Z,796
2017-05-10T15:34:16.346Z,772
2017-05-10T15:35:29.139Z,728
2017-05-10T15:36:41.922Z,688
2017-05-10T15:37:54.706Z,676
2017-05-10T15:39:07.489Z,708
2017-05-10T15:40:20.275Z,740
2017-05-10T15:41:33.111Z,740
2017-05-10T15:42:45.418Z,888
2017-05-10T15:43:58.211Z,1088
2017-05-10T15:45:11.002Z,1032
2017-05-10T15:46:23.787Z,1044
2017-05-10T15:47:36.121Z,1036
2017-05-10T15:48:48.901Z,1052
2017-05-10T15:50:01.682Z,952
2017-05-10T15:51:14.468Z,840
2017-05-10T15:52:27.249Z,936
2017-05-10T15:53:40.040Z,916
2017-05-10T15:54:52.828Z,688
2017-05-10T15:56:05.131Z,832
2017-05-10T15:57:17.912Z,656
2017-05-10T15:58:30.710Z,692
2017-05-10T15:59:43.014Z,816
2017-05-10T16:00:55.810Z,792
2017-05-10T16:02:08.113Z,700
2017-05-10T16:03:20.937Z,924
2017-05-10T16:04:33.239Z,960
2017-05-10T16:05:45.742Z,796
2017-05-10T16:06:58.526Z,736
2017-05-10T16:08:10.836Z,764
2017-05-10T16:09:23.624Z,848
2017-05-10T16:10:36.409Z,956
2017-05-10T16:11:49.190Z,988
2017-05-10T16:13:01.493Z,1044
2017-05-10T16:14:13.802Z,1068
2017-05-10T16:15:26.588Z,1080
2017-05-10T16:16:46.155Z,984
2017-05-10T16:17:58.097Z,1116
2017-05-10T16:19:10.894Z,948
2017-05-10T16:20:23.685Z,896
2017-05-10T16:21:36.771Z,920
2017-05-10T16:22:49.562Z,1024
2017-05-10T16:24:02.352Z,872
2017-05-10T16:25:14.661Z,872
2017-05-10T16:26:27.457Z,904
2017-05-10T16:27:40.456Z,896
2017-05-10T16:28:53.253Z,900
2017-05-10T16:30:05.561Z,920
2017-05-10T16:31:17.897Z,908
2017-05-10T16:32:30.201Z,868
2017-05-10T16:33:43.026Z,792
2017-05-10T16:34:55.333Z,776
2017-05-10T16:36:08.130Z,776
2017-05-10T16:37:20.436Z,780
2017-05-10T16:38:33.228Z,740
2017-05-10T16:39:45.540Z,724
2017-05-10T16:40:58.328Z,656
2017-05-10T16:42:10.636Z,656
2017-05-10T16:43:23.436Z,620
2017-05-10T16:44:36.230Z,616
2017-05-10T16:45:49.019Z,600
2017-05-10T16:47:00.850Z,588
2017-05-10T16:48:13.167Z,552
2017-05-10T16:49:25.753Z,528
2017-05-10T16:50:38.090Z,512
2017-05-10T16:51:50.925Z,496
2017-05-10T16:53:03.301Z,440
2017-05-10T16:54:16.131Z,432
2017-05-10T16:55:28.449Z,408
2017-05-10T16:56:41.248Z,376
2017-05-10T16:57:54.072Z,356
2017-05-10T16:59:06.889Z,356
2017-05-10T17:00:19.739Z,352
2017-05-10T17:01:32.546Z,340
2017-05-10T17:02:44.849Z,344
2017-05-10T17:03:57.647Z,336
2017-05-10T17:05:10.794Z,336